Las Vegas, Nevada
Traffic Map
Current Weather Conditions
Las Vegas, Nevada
Clear
Clear
29°
Feels Like: 29°
Wind Chill: 29° Ceiling: Unl
Heat Index: 29° Visibility: 10mi
Dew Point: -6° Wind: 6mph
Humidity: 10% Direction: 200° (SSW)
Pressure: 29.76in Gusts: 0mph
Raw Report DataKLAS 281356Z 20005KT 10SM CLR 29/M06 A2976 RMK AO2 SLP045 T02891061
Traffic Incident Summary
Active as of:
Severity:
Category:
InformationThere was an issue retrieving the traffic information for this location. Please try a different location or try again shortly.
Advertisements
Track Severe Weather on mobile